createdAt,value
2019-04-23T00:01:08.046Z,46.40
2019-04-23T00:03:35.701Z,46.57
2019-04-23T00:06:12.122Z,46.94
2019-04-23T00:08:42.268Z,46.83
2019-04-23T00:11:08.093Z,46.85
2019-04-23T00:13:49.878Z,47.06
2019-04-23T00:16:15.521Z,47.17
2019-04-23T00:18:43.743Z,47.06
2019-04-23T00:21:26.911Z,47.14
2019-04-23T00:29:12.769Z,47.68
2019-04-23T00:31:31.679Z,47.81
2019-04-23T00:34:26.853Z,48.11
2019-04-23T00:36:37.795Z,48.04
2019-04-23T00:39:08.354Z,48.10
2019-04-23T00:41:42.694Z,48.14
2019-04-23T00:44:16.361Z,48.34
2019-04-23T00:46:42.014Z,48.58
2019-04-23T00:49:21.117Z,48.44
2019-04-23T00:54:22.563Z,48.82
2019-04-23T00:56:52.654Z,48.97
2019-04-23T00:59:24.013Z,49.16
2019-04-23T01:04:28.249Z,49.42
2019-04-23T01:07:00.988Z,49.33
2019-04-23T01:09:33.914Z,49.43
2019-04-23T01:11:57.917Z,49.44
2019-04-23T01:14:32.532Z,49.65
2019-04-23T01:17:08.403Z,49.80
2019-04-23T01:19:37.509Z,50.14
2019-04-23T01:21:55.717Z,50.09
2019-04-23T01:24:45.839Z,50.38
2019-04-23T01:30:18.048Z,51.03
2019-04-23T01:32:43.679Z,51.10
2019-04-23T01:37:47.738Z,51.04
2019-04-23T01:40:28.902Z,51.07
2019-04-23T01:42:49.271Z,51.25
2019-04-23T01:45:26.020Z,51.47
2019-04-23T01:47:58.401Z,51.59
2019-04-23T01:50:31.176Z,51.89
2019-04-23T01:53:05.619Z,51.94
2019-04-23T01:58:21.896Z,52.17
2019-04-23T02:00:45.312Z,52.38
2019-04-23T02:03:13.524Z,52.50
2019-04-23T02:05:42.636Z,52.55
2019-04-23T02:10:51.266Z,52.62
2019-04-23T02:15:47.438Z,52.80
2019-04-23T02:18:17.978Z,53.02
2019-04-23T02:20:52.623Z,53.24
2019-04-23T02:23:39.548Z,53.22
2019-04-23T02:26:09.027Z,53.57
2019-04-23T02:28:46.065Z,53.75
2019-04-23T02:33:51.451Z,53.82
2019-04-23T02:36:19.743Z,53.66
2019-04-23T02:43:59.226Z,54.46
2019-04-23T02:46:18.088Z,54.26
2019-04-23T02:51:39.635Z,54.26
2019-04-23T03:04:10.400Z,55.27
2019-04-23T03:06:39.031Z,55.50
2019-04-23T03:11:42.095Z,55.73
2019-04-23T03:14:20.698Z,56.11
2019-04-23T03:16:53.427Z,56.18
2019-04-23T03:19:15.314Z,56.49
2019-04-23T03:24:43.609Z,56.38
2019-04-23T03:39:52.759Z,56.71
2019-04-23T03:57:18.443Z,56.94
2019-04-23T04:02:35.305Z,57.27
2019-04-23T04:04:45.169Z,57.12
2019-04-23T04:07:32.745Z,57.36
2019-04-23T04:09:51.831Z,57.42
2019-04-23T04:17:37.608Z,57.61
2019-04-23T04:19:56.305Z,57.48
2019-04-23T04:25:04.714Z,57.58
2019-04-23T04:27:35.900Z,57.52
2019-04-23T04:32:40.137Z,57.74
2019-04-23T04:40:23.353Z,57.84
2019-04-23T04:45:16.730Z,57.90
2019-04-23T04:47:42.255Z,57.91
2019-04-23T04:50:12.101Z,57.93
2019-04-23T04:52:49.026Z,58.02
2019-04-23T04:55:23.484Z,58.25
2019-04-23T04:57:58.113Z,58.10
2019-04-23T05:00:20.727Z,58.26
2019-04-23T05:07:47.662Z,58.26
2019-04-23T05:13:03.532Z,58.00
2019-04-23T05:15:17.138Z,57.91
2019-04-23T05:18:19.489Z,57.86
2019-04-23T05:23:16.547Z,57.70
2019-04-23T05:25:40.078Z,57.73
2019-04-23T05:28:14.427Z,57.67
2019-04-23T05:30:46.395Z,57.57
2019-04-23T05:33:17.336Z,57.29
2019-04-23T05:36:06.047Z,57.34
2019-04-23T05:38:31.485Z,57.36
2019-04-23T05:40:53.681Z,57.20
2019-04-23T05:43:18.848Z,57.02
2019-04-23T05:45:46.690Z,57.12
2019-04-23T05:51:01.137Z,56.95
2019-04-23T05:53:27.848Z,56.82
2019-04-23T05:55:55.272Z,56.62
2019-04-23T05:58:31.551Z,56.92
2019-04-23T06:01:35.512Z,56.78
2019-04-23T06:03:48.941Z,56.70
2019-04-23T06:06:31.645Z,56.44
2019-04-23T06:08:53.249Z,56.05
2019-04-23T06:11:34.889Z,55.80
2019-04-23T06:14:02.111Z,55.51
2019-04-23T06:16:31.461Z,55.31
2019-04-23T06:19:01.415Z,54.81
2019-04-23T06:21:34.016Z,54.30
2019-04-23T06:24:10.392Z,53.85
2019-04-23T06:26:40.104Z,53.50
2019-04-23T06:29:06.753Z,53.03
2019-04-23T06:31:41.521Z,52.49
2019-04-23T06:34:14.229Z,52.09
2019-04-23T06:36:40.239Z,51.91
2019-04-23T06:39:10.276Z,51.61
2019-04-23T06:41:44.527Z,51.49
2019-04-23T06:44:19.200Z,51.09
2019-04-23T06:46:52.170Z,51.07
2019-04-23T06:49:24.681Z,50.75
2019-04-23T06:52:07.084Z,50.61
2019-04-23T06:54:29.816Z,50.46
2019-04-23T06:56:58.713Z,50.20
2019-04-23T06:59:24.578Z,50.25
2019-04-23T07:01:59.783Z,50.04
2019-04-23T07:09:34.925Z,49.89
2019-04-23T07:11:58.665Z,49.86
2019-04-23T07:14:35.833Z,50.20
2019-04-23T07:17:03.852Z,50.37
2019-04-23T07:19:37.170Z,50.24
2019-04-23T07:22:14.571Z,50.45
2019-04-23T07:24:36.625Z,50.47
2019-04-23T07:27:10.321Z,50.62
2019-04-23T07:29:40.290Z,50.49
2019-04-23T07:32:12.638Z,50.27
2019-04-23T07:34:52.590Z,49.71
2019-04-23T07:37:15.444Z,49.53
2019-04-23T07:40:07.886Z,49.17
2019-04-23T07:42:34.385Z,48.76
2019-04-23T07:47:32.166Z,47.53
2019-04-23T07:50:26.058Z,47.41
2019-04-23T07:52:54.574Z,47.35
2019-04-23T07:55:23.704Z,46.34
2019-04-23T07:57:53.446Z,45.85
2019-04-23T08:00:26.380Z,45.55
2019-04-23T08:02:44.019Z,45.10
2019-04-23T08:07:52.490Z,44.41
2019-04-23T08:10:24.652Z,44.85
2019-04-23T08:12:53.929Z,44.71
2019-04-23T08:15:23.157Z,44.62
2019-04-23T08:17:50.514Z,44.96
2019-04-23T08:20:29.972Z,44.84
2019-04-23T08:23:04.621Z,45.38
2019-04-23T08:25:39.560Z,45.41
2019-04-23T08:28:08.021Z,45.31
2019-04-23T08:30:42.266Z,44.62
2019-04-23T08:33:24.492Z,44.39
2019-04-23T08:35:45.321Z,43.87
2019-04-23T08:38:29.517Z,43.57
2019-04-23T08:45:52.497Z,44.34
2019-04-23T08:48:27.496Z,43.96
2019-04-23T08:51:08.140Z,43.37
2019-04-23T08:53:37.578Z,43.39
2019-04-23T08:55:55.013Z,43.76
2019-04-23T08:58:30.146Z,43.86
2019-04-23T09:06:06.446Z,43.44
2019-04-23T09:11:28.917Z,43.60
2019-04-23T09:13:53.207Z,42.91
2019-04-23T09:16:09.031Z,42.56
2019-04-23T09:18:37.186Z,42.20
2019-04-23T09:21:14.176Z,41.69
2019-04-23T09:26:08.395Z,41.49
2019-04-23T09:31:41.743Z,42.22
2019-04-23T09:41:42.045Z,42.93
2019-04-23T09:44:50.074Z,42.62
2019-04-23T09:47:08.358Z,42.83
2019-04-23T09:49:42.469Z,43.02
2019-04-23T09:52:13.326Z,42.81
2019-04-23T09:54:46.501Z,43.32
2019-04-23T09:57:04.189Z,43.02
2019-04-23T09:59:47.264Z,42.92
2019-04-23T10:02:06.690Z,42.99
2019-04-23T10:04:31.949Z,42.76
2019-04-23T10:07:01.939Z,42.39
2019-04-23T10:09:20.797Z,42.17
2019-04-23T10:11:51.146Z,40.92
2019-04-23T10:14:20.945Z,40.93
2019-04-23T10:16:51.663Z,41.06
2019-04-23T10:19:22.586Z,41.31
2019-04-23T10:21:53.356Z,40.39
2019-04-23T10:24:23.481Z,40.79
2019-04-23T10:26:52.971Z,41.28
2019-04-23T10:29:25.767Z,42.21
2019-04-23T10:31:55.625Z,41.76
2019-04-23T10:34:25.445Z,41.88
2019-04-23T10:36:55.582Z,41.94
2019-04-23T10:39:30.338Z,41.55
2019-04-23T10:41:57.589Z,41.02
2019-04-23T10:44:32.992Z,41.30
2019-04-23T10:47:35.482Z,41.34
2019-04-23T10:50:05.437Z,41.43
2019-04-23T10:52:40.991Z,41.62
2019-04-23T10:55:06.043Z,40.65
2019-04-23T10:57:31.257Z,39.83
2019-04-23T11:00:13.771Z,39.99
2019-04-23T11:03:06.292Z,40.27
2019-04-23T11:05:16.231Z,40.82
2019-04-23T11:07:53.661Z,40.34
2019-04-23T11:10:15.879Z,39.53
2019-04-23T11:18:07.144Z,40.24
2019-04-23T11:22:55.465Z,40.35
2019-04-23T11:28:13.609Z,39.19
2019-04-23T11:30:41.117Z,38.79
2019-04-23T11:33:15.246Z,38.78
2019-04-23T11:36:22.190Z,39.10
2019-04-23T11:38:43.720Z,39.36
2019-04-23T11:40:44.824Z,39.93
2019-04-23T11:43:22.677Z,40.55
2019-04-23T11:51:26.710Z,40.64
2019-04-23T11:53:29.677Z,39.84
2019-04-23T11:58:28.509Z,40.47
2019-04-23T12:01:23.766Z,40.99
2019-04-23T12:03:46.793Z,40.88
2019-04-23T12:06:20.952Z,40.94
2019-04-23T12:09:13.527Z,40.79
2019-04-23T12:11:52.961Z,41.19
2019-04-23T12:17:11.193Z,41.94
2019-04-23T12:22:03.007Z,42.54
2019-04-23T12:27:02.279Z,42.43
2019-04-23T12:29:37.475Z,42.12
2019-04-23T12:35:01.468Z,41.72
2019-04-23T12:37:36.382Z,41.71
2019-04-23T12:40:15.374Z,41.41
2019-04-23T12:45:14.345Z,42.08
2019-04-23T12:57:46.919Z,41.92
2019-04-23T13:02:55.519Z,41.73
2019-04-23T13:05:21.662Z,42.02
2019-04-23T13:10:22.234Z,41.11
2019-04-23T13:15:22.732Z,41.40
2019-04-23T13:17:54.102Z,40.92
2019-04-23T13:20:28.027Z,41.15
2019-04-23T13:23:01.268Z,41.06
2019-04-23T13:25:34.848Z,40.92
2019-04-23T13:33:20.954Z,40.86
2019-04-23T13:35:53.654Z,41.36
2019-04-23T13:40:55.739Z,41.40
2019-04-23T13:43:30.168Z,41.25
2019-04-23T13:48:15.092Z,40.58
2019-04-23T13:51:01.695Z,40.83
2019-04-23T13:55:52.520Z,40.97
2019-04-23T13:58:26.781Z,40.73
2019-04-23T14:03:50.598Z,40.80
2019-04-23T14:06:16.073Z,40.93
2019-04-23T14:08:47.023Z,39.73
2019-04-23T14:13:50.994Z,39.58
2019-04-23T14:21:25.591Z,39.01
2019-04-23T14:24:03.365Z,39.32
2019-04-23T14:28:53.402Z,37.98
2019-04-23T14:31:16.793Z,38.05
2019-04-23T14:44:08.213Z,38.12
2019-04-23T14:51:58.859Z,37.55
2019-04-23T14:55:01.364Z,37.36
2019-04-23T14:57:07.888Z,37.73
2019-04-23T14:59:30.733Z,37.91
2019-04-23T15:02:04.929Z,38.22
2019-04-23T15:04:39.758Z,38.26
2019-04-23T15:09:52.794Z,37.93
2019-04-23T15:12:16.083Z,37.78
2019-04-23T15:14:52.910Z,37.82
2019-04-23T15:17:23.638Z,38.15
2019-04-23T15:22:20.192Z,38.35
2019-04-23T15:25:19.354Z,38.08
2019-04-23T15:27:02.640Z,38.28
2019-04-23T15:29:45.782Z,38.23
2019-04-23T15:32:24.191Z,38.02
2019-04-23T15:35:08.831Z,38.38
2019-04-23T15:40:00.719Z,38.93
2019-04-23T15:42:29.525Z,38.80
2019-04-23T15:45:01.345Z,38.57
2019-04-23T15:50:10.826Z,38.87
2019-04-23T15:52:48.460Z,38.81
2019-04-23T15:55:20.783Z,38.99
2019-04-23T15:58:01.366Z,39.17
2019-04-23T16:00:10.736Z,39.43
2019-04-23T16:02:13.566Z,39.41
2019-04-23T16:04:44.029Z,39.41
2019-04-23T16:07:31.826Z,39.65
2019-04-23T16:10:17.810Z,39.72
2019-04-23T16:12:51.610Z,39.77
2019-04-23T16:15:16.694Z,39.71
2019-04-23T16:17:54.541Z,39.52
2019-04-23T16:20:31.888Z,39.60
2019-04-23T16:22:52.866Z,39.76
2019-04-23T16:25:20.362Z,39.74
2019-04-23T16:28:02.208Z,39.87
2019-04-23T16:30:40.746Z,39.81
2019-04-23T16:35:56.718Z,39.98
2019-04-23T16:40:47.670Z,40.39
2019-04-23T16:45:55.387Z,40.57
2019-04-23T16:48:36.669Z,40.74
2019-04-23T16:51:10.871Z,40.71
2019-04-23T16:53:26.115Z,40.78
2019-04-23T16:56:05.193Z,40.82
2019-04-23T17:01:05.836Z,41.27
2019-04-23T17:03:55.377Z,41.35
2019-04-23T17:11:09.698Z,41.19
2019-04-23T17:13:54.142Z,41.00
2019-04-23T17:18:44.244Z,41.00
2019-04-23T17:21:16.897Z,41.14
2019-04-23T17:23:49.691Z,41.25
2019-04-23T17:26:20.603Z,41.32
2019-04-23T17:28:44.648Z,41.43
2019-04-23T17:31:35.658Z,41.44
2019-04-23T17:33:51.561Z,41.58
2019-04-23T17:39:02.809Z,42.51
2019-04-23T17:41:43.566Z,42.91
2019-04-23T17:44:18.446Z,43.00
2019-04-23T17:46:44.906Z,43.16
2019-04-23T17:51:42.629Z,43.54
2019-04-23T17:54:17.442Z,43.61
2019-04-23T17:56:55.849Z,43.90
2019-04-23T17:59:20.503Z,44.13
2019-04-23T18:01:59.501Z,44.65
2019-04-23T18:12:10.163Z,45.27
2019-04-23T18:14:18.303Z,45.56
2019-04-23T18:17:09.380Z,45.73
2019-04-23T18:19:24.681Z,45.71
2019-04-23T18:25:00.848Z,45.89
2019-04-23T18:27:27.582Z,45.99
2019-04-23T18:30:04.270Z,46.24
2019-04-23T18:32:35.948Z,46.51
2019-04-23T18:35:15.473Z,46.69
2019-04-23T18:37:35.961Z,46.88
2019-04-23T18:40:06.846Z,47.11
2019-04-23T18:42:43.792Z,47.15
2019-04-23T18:45:20.237Z,47.24
2019-04-23T18:47:45.798Z,47.42
2019-04-23T18:50:14.793Z,47.62
2019-04-23T18:55:24.485Z,48.06
2019-04-23T18:57:54.524Z,48.12
2019-04-23T19:00:24.944Z,48.11
2019-04-23T19:03:29.686Z,48.38
2019-04-23T19:10:58.019Z,48.94
2019-04-23T19:13:31.228Z,49.16
2019-04-23T19:15:53.631Z,49.32
2019-04-23T19:18:44.856Z,49.50
2019-04-23T19:21:09.076Z,49.59
2019-04-23T19:23:39.300Z,49.71
2019-04-23T19:26:07.938Z,49.77
2019-04-23T19:31:31.384Z,50.00
2019-04-23T19:34:09.276Z,50.10
2019-04-23T19:36:28.187Z,50.20
2019-04-23T19:38:57.318Z,50.24
2019-04-23T19:41:25.560Z,50.45
2019-04-23T19:44:01.412Z,50.67
2019-04-23T19:46:48.923Z,50.67
2019-04-23T19:49:05.620Z,50.70
2019-04-23T19:51:39.775Z,50.84
2019-04-23T19:54:21.989Z,50.97
2019-04-23T19:56:45.146Z,50.97
2019-04-23T19:59:02.235Z,51.09
2019-04-23T20:01:41.728Z,51.11
2019-04-23T20:04:04.167Z,51.19
2019-04-23T20:07:13.159Z,51.09
2019-04-23T20:09:30.764Z,51.21
2019-04-23T20:11:52.988Z,51.20
2019-04-23T20:14:11.773Z,51.07
2019-04-23T20:17:04.414Z,51.11
2019-04-23T20:19:23.928Z,51.08
2019-04-23T20:22:07.502Z,51.06
2019-04-23T20:24:28.480Z,51.01
2019-04-23T20:26:59.384Z,51.03
2019-04-23T20:29:45.465Z,51.03
2019-04-23T20:32:57.167Z,51.07
2019-04-23T20:34:51.853Z,51.16
2019-04-23T20:37:05.524Z,51.04
2019-04-23T20:39:47.426Z,51.05
2019-04-23T20:52:10.092Z,51.20
2019-04-23T20:57:44.081Z,51.30
2019-04-23T21:05:17.905Z,51.50
2019-04-23T21:10:27.401Z,51.57
2019-04-23T21:17:58.335Z,51.66
2019-04-23T21:23:04.750Z,51.82
2019-04-23T21:25:44.209Z,51.87
2019-04-23T21:28:08.664Z,52.00
2019-04-23T21:30:49.084Z,52.12
2019-04-23T21:33:11.941Z,52.19
2019-04-23T21:36:12.492Z,52.36
2019-04-23T21:38:48.959Z,52.48
2019-04-23T21:41:27.166Z,52.72
2019-04-23T21:43:47.295Z,52.88
2019-04-23T21:46:18.517Z,53.03
2019-04-23T21:48:56.180Z,53.28
2019-04-23T21:51:24.730Z,53.48
2019-04-23T21:53:42.149Z,53.65
2019-04-23T21:58:53.338Z,54.00
2019-04-23T22:01:28.172Z,54.01
2019-04-23T22:06:31.568Z,53.77
2019-04-23T22:09:10.999Z,53.68
2019-04-23T22:11:53.713Z,53.69
2019-04-23T22:16:38.861Z,53.81
2019-04-23T22:19:13.915Z,53.75
2019-04-23T22:21:43.443Z,53.95
2019-04-23T22:26:34.453Z,54.36
2019-04-23T22:29:16.503Z,54.47
2019-04-23T22:36:48.186Z,54.63
2019-04-23T22:39:17.691Z,54.78
2019-04-23T22:41:50.425Z,55.06
2019-04-23T22:44:26.528Z,55.18
2019-04-23T22:49:29.238Z,55.32
2019-04-23T22:52:02.613Z,55.66
2019-04-23T22:54:32.483Z,56.06
2019-04-23T22:56:54.308Z,56.27
2019-04-23T23:01:59.117Z,57.05
2019-04-23T23:04:31.385Z,57.40
2019-04-23T23:10:00.769Z,57.32
2019-04-23T23:12:07.812Z,57.40
2019-04-23T23:14:35.422Z,57.26
2019-04-23T23:17:11.544Z,57.30
2019-04-23T23:24:46.076Z,57.00
2019-04-23T23:27:30.404Z,56.99
2019-04-23T23:29:49.372Z,57.13
2019-04-23T23:32:23.269Z,57.21
2019-04-23T23:35:00.750Z,57.21
2019-04-23T23:37:39.750Z,57.24
2019-04-23T23:39:58.361Z,57.21
2019-04-23T23:47:18.327Z,57.47
2019-04-23T23:50:01.518Z,57.75
2019-04-23T23:52:34.968Z,58.13
2019-04-23T23:55:03.783Z,58.60
